Terminal Aerodrome Forecast
Issued by NWS Central Illinois

Home | Current Version | Previous Version | Text Only | Print | Product List | Glossary On
Versions: 1 2 3 4 5 6 7 8 9 10 11 12 13 14 15 16 17 18
000
FTUS43 KILX 251139
TAFPIA
TAF
KPIA 251139Z 2512/2612 18015G24KT 3SM -SHRA BR SCT015 OVC020
     FM251400 23015G23KT P6SM BKN025
     FM251600 22014G20KT P6SM SCT040
     FM260000 18010KT P6SM BKN250
     FM260600 18009KT 5SM -SHRA VCTS BKN025CB=

USA.gov is the U.S. government's official web portal to all federal, state and local government web resources and services.